Time;durP1;ratioP1;P1;durP2;ratioP2;P2;SDS_P1;SDS_P2;PMS_P1;PMS_P2;Temp;Humidity;BMP_temperature;BMP_pressure;BME280_temperature;BME280_humidity;BME280_pressure;Samples;Min_cycle;Max_cycle;Signal;HPM_P1;HPM_P2
2022/11/24 00:02:08;;;;;;;10.15;3.33;;;;;;;7.54;94.29;99706.00;4986736;28;20034;-67
2022/11/24 00:04:34;;;;;;;6.93;2.33;;;;;;;7.64;93.48;99700.84;4991751;28;20124;-67
2022/11/24 00:06:59;;;;;;;6.25;3.00;;;;;;;7.50;93.46;99700.59;4990229;28;20034;-66
2022/11/24 00:09:25;;;;;;;1.70;1.38;;;;;;;7.54;94.21;99700.66;4987936;28;20041;-68
2022/11/24 00:11:50;;;;;;;3.05;1.55;;;;;;;7.60;93.59;99707.25;4988866;28;20049;-67
2022/11/24 00:14:16;;;;;;;4.93;2.17;;;;;;;7.59;94.24;99695.00;4988592;28;20033;-67
2022/11/24 00:16:41;;;;;;;5.07;1.77;;;;;;;7.52;94.14;99700.22;4992286;28;20038;-67
2022/11/24 00:19:08;;;;;;;3.35;1.83;;;;;;;7.66;94.19;99703.16;4989598;28;20045;-67
2022/11/24 00:21:35;;;;;;;2.67;2.30;;;;;;;7.57;94.02;99702.63;4990051;28;20048;-67
2022/11/24 00:24:01;;;;;;;3.28;2.13;;;;;;;7.43;94.71;99708.53;4974307;28;20030;-68
2022/11/24 00:26:32;;;;;;;2.75;1.90;;;;;;;7.52;94.55;99702.91;4992311;28;20167;-68
2022/11/24 00:29:00;;;;;;;1.67;1.58;;;;;;;7.43;94.96;99705.06;4990057;28;20037;-67
2022/11/24 00:31:31;;;;;;;2.60;2.03;;;;;;;7.38;94.93;99716.03;4990456;28;20096;-67
2022/11/24 00:33:59;;;;;;;3.33;1.90;;;;;;;7.35;95.86;99719.44;4984345;28;20081;-68
2022/11/24 00:36:28;;;;;;;3.60;1.60;;;;;;;7.44;95.59;99717.31;4989533;28;20034;-67
2022/11/24 00:38:59;;;;;;;1.70;1.60;;;;;;;7.37;95.64;99717.97;4989178;28;20057;-67
2022/11/24 00:41:25;;;;;;;;;;;;;;;7.45;95.78;99716.97;4992265;28;20081;-67
2022/11/24 00:43:51;;;;;;;2.53;1.80;;;;;;;7.38;96.19;99718.72;4986779;28;20491;-69
2022/11/24 00:46:17;;;;;;;8.10;2.42;;;;;;;7.44;96.36;99726.13;4987650;28;20030;-67
2022/11/24 00:48:43;;;;;;;3.78;1.90;;;;;;;7.43;96.87;99718.44;4990492;28;20509;-67
2022/11/24 00:51:10;;;;;;;2.22;2.03;;;;;;;7.30;97.78;99723.19;4990946;28;20102;-67
2022/11/24 00:53:36;;;;;;;2.78;2.30;;;;;;;7.32;98.30;99722.84;4987671;28;20042;-67
2022/11/24 00:56:05;;;;;;;2.53;1.40;;;;;;;7.45;97.62;99729.56;4985265;28;20072;-68
2022/11/24 00:58:31;;;;;;;7.13;2.25;;;;;;;7.56;96.23;99728.63;4989108;28;20041;-68
2022/11/24 01:01:05;;;;;;;4.63;2.13;;;;;;;7.50;96.86;99723.91;4984621;28;20113;-67
2022/11/24 01:03:32;;;;;;;3.13;2.15;;;;;;;7.51;96.80;99738.88;4990784;28;20613;-67
2022/11/24 01:06:18;;;;;;;2.20;1.88;;;;;;;7.53;96.01;99734.69;4991404;28;20045;-67
2022/11/24 01:08:45;;;;;;;3.20;1.80;;;;;;;7.42;97.08;99743.66;4988517;28;20030;-68
2022/11/24 01:11:19;;;;;;;3.47;1.75;;;;;;;7.30;97.62;99740.03;4989704;28;20030;-67
2022/11/24 01:13:47;;;;;;;2.42;1.80;;;;;;;7.22;99.05;99745.59;4987398;28;20042;-67
2022/11/24 01:16:25;;;;;;;3.63;2.42;;;;;;;7.23;99.75;99737.22;4990329;28;20034;-67
2022/11/24 01:18:51;;;;;;;10.73;2.30;;;;;;;7.35;99.07;99747.00;4988928;28;20038;-68
2022/11/24 01:21:17;;;;;;;4.28;2.00;;;;;;;7.37;98.61;99755.47;4986534;28;20045;-69
2022/11/24 01:23:43;;;;;;;2.78;1.50;;;;;;;7.43;98.43;99748.69;4988911;28;20109;-67
2022/11/24 01:26:12;;;;;;;2.40;1.60;;;;;;;7.45;98.56;99751.00;5005606;28;20129;-70
2022/11/24 01:28:37;;;;;;;3.30;2.05;;;;;;;7.37;98.79;99762.72;4990175;28;20041;-67
2022/11/24 01:31:06;;;;;;;2.45;1.75;;;;;;;7.43;98.97;99751.38;4998149;28;20125;-67
2022/11/24 01:33:36;;;;;;;2.95;1.60;;;;;;;7.35;99.16;99748.91;4986857;28;20034;-68
2022/11/24 01:36:03;;;;;;;4.20;2.15;;;;;;;7.12;99.16;99754.97;4989212;28;20069;-67
2022/11/24 01:38:28;;;;;;;5.85;1.80;;;;;;;7.22;100.00;99754.41;4990004;28;20038;-70
2022/11/24 01:41:01;;;;;;;1.83;1.52;;;;;;;7.17;100.00;99754.72;4990310;28;20507;-67
2022/11/24 01:43:26;;;;;;;2.75;1.80;;;;;;;7.28;100.00;99755.69;4984359;28;20030;-67
2022/11/24 01:45:53;;;;;;;1.65;1.45;;;;;;;7.39;100.00;99753.19;4990641;28;20157;-67
2022/11/24 01:48:34;;;;;;;2.60;2.20;;;;;;;7.47;99.99;99746.06;4983221;28;20041;-68
2022/11/24 01:51:15;;;;;;;4.80;2.22;;;;;;;7.51;99.42;99755.69;4989739;28;20037;-67
2022/11/24 01:53:42;;;;;;;;;;;;;;;7.43;100.00;99755.94;4991722;28;20353;-68
2022/11/24 01:56:10;;;;;;;1.80;1.15;;;;;;;7.63;98.98;99752.84;4980762;28;19918;-67
2022/11/24 01:58:38;;;;;;;4.15;2.47;;;;;;;7.55;98.83;99747.75;4989584;28;20045;-68
2022/11/24 02:01:04;;;;;;;4.35;1.88;;;;;;;7.44;99.04;99752.91;4991275;28;20046;-68
2022/11/24 02:03:37;;;;;;;2.30;1.33;;;;;;;7.40;100.00;99757.41;4987207;28;20426;-67
2022/11/24 02:06:02;;;;;;;3.63;1.85;;;;;;;7.38;99.89;99764.25;4990146;28;20202;-68
2022/11/24 02:09:20;;;;;;;2.70;1.63;;;;;;;7.49;99.85;99766.00;4989478;28;20137;-67
2022/11/24 02:11:46;;;;;;;1.55;1.38;;;;;;;7.37;100.00;99773.44;4963527;28;20054;-68
2022/11/24 02:14:14;;;;;;;2.75;1.60;;;;;;;7.43;100.00;99777.38;4988911;28;20034;-67
2022/11/24 02:16:44;;;;;;;2.83;1.80;;;;;;;7.42;100.00;99771.22;4991111;28;20033;-67
2022/11/24 02:19:28;;;;;;;3.00;1.75;;;;;;;7.47;100.00;99773.59;4988434;28;20042;-67
2022/11/24 02:21:54;;;;;;;3.90;1.67;;;;;;;7.53;100.00;99782.16;4986162;28;20042;-67
2022/11/24 02:24:44;;;;;;;2.85;1.73;;;;;;;7.52;100.00;99780.59;4990504;28;20117;-68
2022/11/24 02:27:10;;;;;;;5.38;2.65;;;;;;;7.62;100.00;99770.06;4983665;28;20394;-67
2022/11/24 02:29:36;;;;;;;1.88;1.23;;;;;;;7.57;99.77;99773.03;4986024;28;20038;-67
2022/11/24 02:32:05;;;;;;;3.17;1.90;;;;;;;7.29;100.00;99775.97;4984049;28;20030;-68
2022/11/24 02:34:31;;;;;;;3.05;2.20;;;;;;;7.12;100.00;99779.06;4980793;28;20050;-68
2022/11/24 02:36:56;;;;;;;3.03;1.80;;;;;;;7.25;100.00;99777.03;4987801;28;20034;-67
2022/11/24 02:39:22;;;;;;;2.88;1.52;;;;;;;7.11;100.00;99787.47;5003350;22;20045;-70
2022/11/24 02:41:55;;;;;;;3.60;2.35;;;;;;;7.07;100.00;99776.69;5004625;28;20089;-70
2022/11/24 02:44:26;;;;;;;5.20;2.25;;;;;;;6.96;100.00;99774.94;5006531;28;20091;-70
2022/11/24 02:47:21;;;;;;;4.30;1.92;;;;;;;7.11;100.00;99777.53;5006984;28;20386;-70
2022/11/24 02:49:47;;;;;;;4.35;1.75;;;;;;;7.08;100.00;99777.47;4986095;28;20038;-70
2022/11/24 02:52:12;;;;;;;1.65;1.55;;;;;;;7.31;100.00;99783.66;4990432;28;20038;-70
2022/11/24 02:54:38;;;;;;;4.63;1.60;;;;;;;7.41;100.00;99777.72;4990572;28;20030;-70
2022/11/24 02:57:03;;;;;;;2.97;1.98;;;;;;;7.32;100.00;99777.94;4990207;28;20034;-70
2022/11/24 02:59:29;;;;;;;3.90;1.55;;;;;;;7.33;100.00;99781.41;4990883;28;20426;-70
2022/11/24 03:01:54;;;;;;;2.92;1.98;;;;;;;7.32;100.00;99784.44;4990788;28;20482;-70
2022/11/24 03:04:20;;;;;;;1.75;1.40;;;;;;;7.38;100.00;99791.81;4987173;28;20494;-70
2022/11/24 03:06:45;;;;;;;2.90;1.70;;;;;;;7.47;100.00;99789.69;4979602;28;20077;-69
2022/11/24 03:09:11;;;;;;;2.70;1.77;;;;;;;7.46;100.00;99793.50;4983654;28;20093;-69
2022/11/24 03:11:37;;;;;;;1.95;1.65;;;;;;;7.39;100.00;99781.88;4992804;28;20560;-70
2022/11/24 03:14:05;;;;;;;3.00;1.85;;;;;;;7.39;100.00;99790.69;4993932;28;20038;-70
2022/11/24 03:16:31;;;;;;;3.20;1.85;;;;;;;7.34;100.00;99790.97;4983881;28;20040;-68
2022/11/24 03:18:57;;;;;;;2.47;1.30;;;;;;;7.35;100.00;99789.06;4991255;28;20062;-68
2022/11/24 03:21:23;;;;;;;3.20;2.03;;;;;;;7.45;100.00;99796.53;4992452;28;20082;-68
2022/11/24 03:23:48;;;;;;;1.73;1.63;;;;;;;7.54;100.00;99800.53;4993032;28;20120;-69
2022/11/24 03:26:16;;;;;;;2.80;2.40;;;;;;;7.46;100.00;99801.53;4982447;28;20030;-69
2022/11/24 03:28:42;;;;;;;4.05;2.10;;;;;;;7.18;100.00;99804.44;4991627;28;20045;-68
2022/11/24 03:31:09;;;;;;;2.20;1.73;;;;;;;7.15;100.00;99804.38;4987771;28;20026;-68
2022/11/24 03:33:35;;;;;;;3.50;1.85;;;;;;;7.06;100.00;99811.84;4991405;28;20092;-68
2022/11/24 03:36:01;;;;;;;2.30;1.60;;;;;;;7.35;100.00;99797.88;4992670;28;20606;-69
2022/11/24 03:38:27;;;;;;;6.00;1.75;;;;;;;7.40;100.00;99804.84;4989279;28;20077;-69
2022/11/24 03:40:53;;;;;;;2.65;1.95;;;;;;;7.25;100.00;99823.34;4992494;28;20064;-69
2022/11/24 03:43:18;;;;;;;2.53;1.70;;;;;;;7.32;100.00;99819.25;4993037;28;20173;-68
2022/11/24 03:45:48;;;;;;;3.97;1.88;;;;;;;7.30;100.00;99815.00;4988192;28;20117;-68
2022/11/24 03:48:15;;;;;;;2.53;2.10;;;;;;;7.23;100.00;99822.91;4977029;28;20031;-68
2022/11/24 03:50:40;;;;;;;1.63;1.38;;;;;;;7.37;100.00;99833.13;4979098;28;20042;-68
2022/11/24 03:53:06;;;;;;;2.58;1.50;;;;;;;7.17;100.00;99834.25;4985592;28;20554;-69
2022/11/24 03:55:32;;;;;;;2.00;1.40;;;;;;;7.28;100.00;99837.91;4989569;28;20400;-68
2022/11/24 03:57:57;;;;;;;3.40;1.98;;;;;;;7.42;100.00;99850.78;4991846;28;20114;-69
2022/11/24 04:00:23;;;;;;;2.90;2.05;;;;;;;7.52;100.00;99844.88;4988998;28;20065;-68
2022/11/24 04:02:48;;;;;;;3.30;1.75;;;;;;;7.55;100.00;99847.63;4992499;28;20483;-68
2022/11/24 04:05:14;;;;;;;3.25;1.63;;;;;;;7.56;100.00;99841.13;4991525;28;20056;-68
2022/11/24 04:07:39;;;;;;;1.58;1.27;;;;;;;7.50;100.00;99841.78;4984597;28;20044;-68
2022/11/24 04:10:05;;;;;;;4.80;2.08;;;;;;;7.39;100.00;99843.47;4991680;28;20030;-68
2022/11/24 04:12:43;;;;;;;3.00;2.10;;;;;;;7.38;100.00;99857.97;4992747;28;20438;-68
2022/11/24 04:15:18;;;;;;;2.88;1.02;;;;;;;7.44;100.00;99864.59;4991146;28;20101;-68
2022/11/24 04:17:45;;;;;;;1.65;1.33;;;;;;;7.39;100.00;99864.91;4989490;28;20034;-68
2022/11/24 04:20:11;;;;;;;2.15;1.40;;;;;;;7.43;100.00;99863.06;4990754;28;20026;-69
2022/11/24 04:22:37;;;;;;;3.08;2.00;;;;;;;7.52;100.00;99866.31;4992243;28;20456;-68
2022/11/24 04:25:04;;;;;;;3.75;1.88;;;;;;;7.54;100.00;99864.81;4992133;28;20117;-68
2022/11/24 04:27:31;;;;;;;2.38;1.60;;;;;;;7.49;100.00;99872.38;4988458;28;20076;-69
2022/11/24 04:29:56;;;;;;;4.03;2.20;;;;;;;7.38;100.00;99874.03;4988447;28;20046;-69
2022/11/24 04:32:22;;;;;;;5.00;2.08;;;;;;;7.49;100.00;99883.09;4991793;28;20041;-68
2022/11/24 04:34:47;;;;;;;3.78;1.75;;;;;;;7.58;100.00;99883.66;4991162;28;20050;-68
2022/11/24 04:37:13;;;;;;;1.52;1.40;;;;;;;7.75;100.00;99883.19;4990454;28;20034;-69
2022/11/24 04:39:38;;;;;;;3.20;1.90;;;;;;;7.73;100.00;99885.47;4986153;28;20069;-68
2022/11/24 04:42:25;;;;;;;4.00;1.52;;;;;;;7.63;100.00;99881.44;4984976;28;20038;-68
2022/11/24 04:44:50;;;;;;;5.22;1.85;;;;;;;7.70;100.00;99894.22;4914321;29;20048;-68
2022/11/24 04:47:19;;;;;;;2.92;1.60;;;;;;;7.55;100.00;99882.44;4930215;29;20424;-69
2022/11/24 04:49:46;;;;;;;1.80;1.52;;;;;;;7.74;100.00;99895.81;4916237;29;20059;-68
2022/11/24 04:52:11;;;;;;;1.70;1.55;;;;;;;7.66;100.00;99888.00;4916010;29;20043;-68
2022/11/24 04:54:37;;;;;;;3.70;1.67;;;;;;;7.56;100.00;99894.72;4914409;29;20020;-68
2022/11/24 04:57:02;;;;;;;3.13;1.60;;;;;;;7.73;100.00;99898.84;4931504;29;20051;-68
2022/11/24 04:59:28;;;;;;;2.72;1.90;;;;;;;7.57;100.00;99892.81;4925900;29;20040;-69
2022/11/24 05:01:53;;;;;;;2.22;1.75;;;;;;;7.59;100.00;99896.69;4931440;29;20067;-68
2022/11/24 05:04:20;;;;;;;8.43;1.85;;;;;;;7.70;100.00;99900.38;4914044;29;20043;-68
2022/11/24 05:06:46;;;;;;;3.42;2.20;;;;;;;7.68;100.00;99901.84;4915547;29;20044;-68
2022/11/24 05:09:15;;;;;;;3.20;1.88;;;;;;;7.77;100.00;99905.06;4926496;29;20722;-68
2022/11/24 05:11:41;;;;;;;4.15;1.90;;;;;;;7.83;100.00;99901.75;4930328;29;20048;-68
2022/11/24 05:14:07;;;;;;;3.33;1.75;;;;;;;7.89;100.00;99899.56;4916048;29;20094;-68
2022/11/24 05:16:32;;;;;;;2.80;1.58;;;;;;;7.86;100.00;99902.94;4929572;29;20043;-69
2022/11/24 05:18:58;;;;;;;2.90;2.20;;;;;;;7.90;100.00;99901.88;4915208;29;20049;-69
2022/11/24 05:21:23;;;;;;;3.65;2.40;;;;;;;7.83;100.00;99909.78;4937606;28;20050;-69
2022/11/24 05:23:49;;;;;;;5.32;1.85;;;;;;;7.80;100.00;99915.84;4990971;28;20034;-69
2022/11/24 05:26:14;;;;;;;5.10;1.88;;;;;;;7.89;100.00;99915.63;4991087;28;20026;-69
2022/11/24 05:28:39;;;;;;;3.28;2.00;;;;;;;7.90;100.00;99922.53;4989176;28;20053;-69
2022/11/24 05:31:05;;;;;;;3.55;1.88;;;;;;;7.80;100.00;99915.84;4991061;28;20038;-69
2022/11/24 05:33:32;;;;;;;4.18;1.92;;;;;;;7.89;100.00;99919.09;4988718;28;20069;-69
2022/11/24 05:36:05;;;;;;;3.03;2.00;;;;;;;8.00;100.00;99919.28;4990082;28;20030;-69
2022/11/24 05:38:32;;;;;;;3.90;2.05;;;;;;;7.98;100.00;99918.84;4989337;28;20035;-69
2022/11/24 05:41:02;;;;;;;3.00;1.92;;;;;;;7.95;100.00;99927.63;4990154;28;20065;-69
2022/11/24 05:43:28;;;;;;;2.72;1.83;;;;;;;8.07;100.00;99922.88;4986448;28;20034;-69
2022/11/24 05:45:58;;;;;;;3.25;1.88;;;;;;;8.24;100.00;99924.34;4983819;28;20045;-69
2022/11/24 05:48:23;;;;;;;2.75;1.48;;;;;;;8.29;100.00;99926.72;4983959;28;20041;-69
2022/11/24 05:50:56;;;;;;;2.17;1.70;;;;;;;8.16;100.00;99933.38;4982083;28;20553;-69
2022/11/24 05:53:23;;;;;;;2.97;1.63;;;;;;;8.18;100.00;99931.13;4981623;28;20068;-69
2022/11/24 05:55:48;;;;;;;3.83;2.15;;;;;;;8.19;100.00;99938.00;4994562;28;20021;-70
2022/11/24 05:58:14;;;;;;;2.30;1.80;;;;;;;8.16;100.00;99933.38;4986835;28;20096;-69
2022/11/24 06:00:39;;;;;;;5.90;2.15;;;;;;;8.12;100.00;99948.63;4981774;28;20035;-68
2022/11/24 06:03:05;;;;;;;6.65;1.70;;;;;;;8.08;100.00;99947.78;4987147;28;20392;-69
2022/11/24 06:05:30;;;;;;;2.55;1.73;;;;;;;8.15;100.00;99947.91;4983720;28;20388;-69
2022/11/24 06:07:58;;;;;;;2.55;2.08;;;;;;;8.23;100.00;99954.94;4980149;28;20031;-69
2022/11/24 06:10:23;;;;;;;3.33;2.10;;;;;;;8.25;100.00;99951.94;4986613;28;20121;-69
2022/11/24 06:12:49;;;;;;;4.35;2.35;;;;;;;8.31;100.00;99962.03;4987601;28;20121;-69
2022/11/24 06:15:16;;;;;;;6.22;2.38;;;;;;;8.29;100.00;99950.88;4979246;28;20109;-69
2022/11/24 06:17:42;;;;;;;3.35;2.88;;;;;;;8.17;100.00;99967.09;4959498;28;20577;-69
2022/11/24 06:20:09;;;;;;;5.15;2.38;;;;;;;8.30;100.00;99960.47;4981372;28;20335;-69
2022/11/24 06:22:35;;;;;;;2.70;1.50;;;;;;;8.36;100.00;99964.44;4979632;28;20030;-69
2022/11/24 06:25:01;;;;;;;2.13;1.70;;;;;;;8.34;100.00;99964.00;4973095;28;20031;-70
2022/11/24 06:27:26;;;;;;;4.50;1.52;;;;;;;8.30;100.00;99967.75;4989488;28;20034;-69
2022/11/24 06:29:52;;;;;;;2.80;1.40;;;;;;;8.34;100.00;99966.69;4992061;28;20106;-69
2022/11/24 06:32:17;;;;;;;2.45;1.65;;;;;;;8.41;100.00;99968.72;4981447;28;20574;-71
2022/11/24 06:34:43;;;;;;;2.05;1.88;;;;;;;8.45;100.00;99967.66;4980895;28;20114;-70
2022/11/24 06:37:09;;;;;;;3.95;2.15;;;;;;;8.53;100.00;99973.91;4979089;28;20094;-69
2022/11/24 06:39:34;;;;;;;5.18;2.40;;;;;;;8.44;100.00;99989.47;4978591;28;20196;-70
2022/11/24 06:42:03;;;;;;;3.22;1.92;;;;;;;8.41;100.00;99990.16;4980329;28;20541;-69
2022/11/24 06:44:28;;;;;;;2.47;1.88;;;;;;;8.33;100.00;100001.91;4990385;28;20502;-69
2022/11/24 06:46:53;;;;;;;6.93;1.90;;;;;;;8.37;100.00;99998.16;4988806;28;20042;-69
2022/11/24 06:49:19;;;;;;;2.28;2.08;;;;;;;8.34;100.00;100001.56;4988358;28;20065;-69
2022/11/24 06:51:45;;;;;;;6.93;2.25;;;;;;;8.49;100.00;99999.91;4983959;28;20018;-69
2022/11/24 06:54:14;;;;;;;2.17;1.77;;;;;;;8.48;100.00;100009.84;4983893;28;20033;-69
2022/11/24 06:56:39;;;;;;;4.05;2.05;;;;;;;8.52;100.00;100015.28;4990580;28;20045;-69
2022/11/24 06:59:05;;;;;;;3.45;2.00;;;;;;;8.48;100.00;100004.47;4996798;28;20495;-69
2022/11/24 07:01:31;;;;;;;3.50;1.83;;;;;;;8.55;100.00;100010.00;4995325;28;20041;-69
2022/11/24 07:03:57;;;;;;;5.25;2.17;;;;;;;8.54;100.00;100004.97;4995334;28;20038;-69
2022/11/24 07:06:24;;;;;;;5.45;1.95;;;;;;;8.48;100.00;100009.09;4988756;28;20030;-69
2022/11/24 07:08:50;;;;;;;3.92;2.33;;;;;;;8.49;100.00;100011.41;4991071;28;20030;-69
2022/11/24 07:11:21;;;;;;;3.28;2.00;;;;;;;8.35;100.00;100021.88;4990803;28;20022;-69
2022/11/24 07:13:48;;;;;;;8.30;2.35;;;;;;;8.38;100.00;100026.53;4993404;28;20044;-69
2022/11/24 07:16:21;;;;;;;2.33;1.35;;;;;;;8.17;100.00;100023.41;4991734;28;20083;-69
2022/11/24 07:18:48;;;;;;;2.33;2.13;;;;;;;8.29;100.00;100025.19;4989670;28;20038;-69
2022/11/24 07:21:15;;;;;;;2.17;1.73;;;;;;;8.25;100.00;100030.50;4993136;28;20054;-70
2022/11/24 07:23:40;;;;;;;7.35;2.15;;;;;;;8.32;100.00;100027.19;4993155;28;20018;-69
2022/11/24 07:26:07;;;;;;;3.17;2.05;;;;;;;8.24;100.00;100020.88;4994865;28;20113;-69
2022/11/24 07:28:34;;;;;;;2.95;1.95;;;;;;;8.42;100.00;100032.72;4987652;28;20034;-69
2022/11/24 07:31:04;;;;;;;2.25;1.88;;;;;;;8.42;100.00;100042.72;4996181;28;20039;-69
2022/11/24 07:33:30;;;;;;;7.20;2.22;;;;;;;8.55;100.00;100044.88;4962055;28;20133;-69
2022/11/24 07:35:58;;;;;;;4.03;1.88;;;;;;;8.41;100.00;100049.19;4977081;28;20161;-69
2022/11/24 07:38:24;;;;;;;3.78;2.25;;;;;;;8.56;100.00;100051.78;4977530;28;20098;-69
2022/11/24 07:40:49;;;;;;;2.35;1.80;;;;;;;8.59;100.00;100055.66;4984277;28;20046;-69
2022/11/24 07:43:15;;;;;;;3.28;2.08;;;;;;;8.49;100.00;100057.03;4992753;28;20192;-69
2022/11/24 07:45:41;;;;;;;3.33;1.95;;;;;;;8.56;100.00;100064.41;4991966;28;20117;-69
2022/11/24 07:48:07;;;;;;;5.72;3.03;;;;;;;8.57;100.00;100072.13;4985981;28;20121;-69
2022/11/24 07:50:33;;;;;;;11.05;2.83;;;;;;;8.67;100.00;100068.09;4993485;28;20414;-69
2022/11/24 07:53:03;;;;;;;3.30;2.15;;;;;;;8.65;100.00;100068.41;4992899;28;20487;-68
2022/11/24 07:55:29;;;;;;;6.90;2.42;;;;;;;8.50;100.00;100073.88;4992486;28;20038;-69
2022/11/24 07:57:58;;;;;;;3.83;2.38;;;;;;;8.48;100.00;100068.88;4991645;28;20037;-69
2022/11/24 08:00:23;;;;;;;3.58;2.42;;;;;;;8.56;100.00;100081.28;4990042;28;20153;-70
2022/11/24 08:02:49;;;;;;;6.82;2.55;;;;;;;8.65;100.00;100086.47;4992906;28;20120;-69
2022/11/24 08:05:14;;;;;;;13.02;2.78;;;;;;;8.66;100.00;100091.47;4993215;28;20486;-69
2022/11/24 08:07:39;;;;;;;4.15;2.65;;;;;;;8.66;100.00;100085.31;4990300;28;20050;-69
2022/11/24 08:10:05;;;;;;;7.10;2.65;;;;;;;8.75;100.00;100085.88;4989897;28;20041;-69
2022/11/24 08:12:31;;;;;;;5.80;3.15;;;;;;;8.80;100.00;100086.34;4991394;28;20042;-70
2022/11/24 08:14:56;;;;;;;11.80;2.90;;;;;;;8.92;100.00;100093.47;4992401;28;20026;-70
2022/11/24 08:17:22;;;;;;;5.63;1.98;;;;;;;9.05;100.00;100092.94;4984192;28;20045;-69
2022/11/24 08:19:47;;;;;;;7.82;3.05;;;;;;;8.96;100.00;100100.44;4992676;28;20038;-70
2022/11/24 08:22:12;;;;;;;6.97;2.35;;;;;;;9.04;100.00;100110.16;4991384;28;20549;-69
2022/11/24 08:24:44;;;;;;;8.82;2.92;;;;;;;8.95;100.00;100109.63;4990481;28;20502;-69
2022/11/24 08:27:10;;;;;;;3.92;2.28;;;;;;;8.87;100.00;100105.25;4977253;28;20054;-69
2022/11/24 08:29:36;;;;;;;6.65;2.90;;;;;;;8.98;100.00;100106.22;4990239;28;20050;-69
2022/11/24 08:32:01;;;;;;;7.15;2.80;;;;;;;8.93;100.00;100116.50;4986306;28;20042;-69
2022/11/24 08:34:26;;;;;;;4.90;2.88;;;;;;;8.87;100.00;100118.69;4977759;28;20069;-70
2022/11/24 08:36:52;;;;;;;5.30;2.70;;;;;;;8.86;100.00;100119.06;4962293;28;20015;-69
2022/11/24 08:39:17;;;;;;;3.45;2.22;;;;;;;8.97;100.00;100120.00;4979468;28;20030;-69
2022/11/24 08:41:43;;;;;;;7.07;2.72;;;;;;;9.08;100.00;100126.34;5024136;23;20063;-64
2022/11/24 08:44:09;;;;;;;2.63;1.95;;;;;;;9.04;100.00;100130.88;5006217;28;20042;-64
2022/11/24 08:46:35;;;;;;;4.97;2.15;;;;;;;9.10;100.00;100143.66;4994870;28;20030;-64
2022/11/24 08:49:02;;;;;;;5.03;2.40;;;;;;;9.12;100.00;100140.63;5008421;28;20042;-64
2022/11/24 08:51:28;;;;;;;6.20;2.75;;;;;;;9.01;100.00;100135.06;5012709;28;20447;-64
2022/11/24 08:53:58;;;;;;;10.23;2.60;;;;;;;8.96;100.00;100135.34;5014702;28;20041;-64
2022/11/24 08:56:25;;;;;;;4.97;1.67;;;;;;;9.05;100.00;100135.13;5014722;28;20029;-64
2022/11/24 08:58:52;;;;;;;2.75;2.03;;;;;;;9.04;100.00;100134.34;5006902;28;20037;-65
2022/11/24 09:01:17;;;;;;;5.75;2.35;;;;;;;9.10;100.00;100143.66;5007135;28;20041;-65
2022/11/24 09:03:45;;;;;;;6.20;2.15;;;;;;;9.21;100.00;100143.84;4986763;28;20625;-65
2022/11/24 09:06:10;;;;;;;3.45;1.67;;;;;;;9.22;100.00;100131.97;5003893;28;20031;-64
2022/11/24 09:08:37;;;;;;;5.88;1.65;;;;;;;9.26;100.00;100148.13;5007934;28;20048;-65
2022/11/24 09:11:06;;;;;;;6.15;2.60;;;;;;;9.14;100.00;100151.03;5011577;28;20398;-64
2022/11/24 09:13:31;;;;;;;2.47;1.77;;;;;;;9.20;100.00;100152.25;5010957;28;20535;-64
2022/11/24 09:16:27;;;;;;;5.15;2.55;;;;;;;9.19;100.00;100156.09;5007539;28;20061;-64
2022/11/24 09:18:58;;;;;;;4.65;2.70;;;;;;;9.30;100.00;100154.34;4999256;28;20066;-65
2022/11/24 09:21:24;;;;;;;3.40;2.33;;;;;;;9.39;100.00;100158.34;5011465;28;20026;-65
2022/11/24 09:23:52;;;;;;;3.20;2.20;;;;;;;9.27;100.00;100160.44;5011840;28;20100;-64
2022/11/24 09:26:28;;;;;;;9.63;2.25;;;;;;;9.19;100.00;100166.84;5008653;28;20061;-64
2022/11/24 09:28:56;;;;;;;4.65;2.13;;;;;;;9.33;100.00;100170.53;5007221;28;20037;-65
2022/11/24 09:31:24;;;;;;;5.25;2.00;;;;;;;9.37;100.00;100167.94;5011616;28;20026;-64
2022/11/24 09:33:51;;;;;;;3.28;2.38;;;;;;;9.61;100.00;100168.31;5008571;28;20061;-64
2022/11/24 09:36:17;;;;;;;5.78;2.22;;;;;;;9.64;100.00;100178.34;5011006;28;20036;-65
2022/11/24 09:38:42;;;;;;;6.40;2.17;;;;;;;9.79;100.00;100173.97;5008735;28;20034;-64
2022/11/24 09:41:17;;;;;;;4.07;2.38;;;;;;;9.74;100.00;100174.28;5010092;28;20029;-64
2022/11/24 09:44:01;;;;;;;6.20;2.35;;;;;;;9.84;100.00;100176.34;5011545;28;20030;-65
2022/11/24 09:46:46;;;;;;;7.20;2.25;;;;;;;9.89;100.00;100184.13;5019745;28;20627;-65
2022/11/24 09:49:31;;;;;;;2.40;1.90;;;;;;;9.95;100.00;100182.66;5002089;28;20371;-65
2022/11/24 09:52:01;;;;;;;5.93;2.35;;;;;;;9.93;100.00;100177.66;5008755;28;20033;-64
2022/11/24 09:54:28;;;;;;;5.10;2.45;;;;;;;9.92;100.00;100189.56;5009536;28;20033;-65
2022/11/24 09:56:58;;;;;;;6.95;2.17;;;;;;;9.96;100.00;100184.22;5008221;28;20394;-64
2022/11/24 09:59:26;;;;;;;4.15;2.40;;;;;;;9.93;100.00;100176.88;4996955;28;20517;-63
2022/11/24 10:01:52;;;;;;;3.20;2.28;;;;;;;9.93;100.00;100180.34;5011692;28;20113;-65
2022/11/24 10:04:40;;;;;;;4.00;2.13;;;;;;;9.97;100.00;100180.38;5004640;28;20483;-63
2022/11/24 10:07:18;;;;;;;6.93;2.45;;;;;;;10.08;99.83;100185.94;5011806;28;20026;-64
2022/11/24 10:09:53;;;;;;;3.65;2.03;;;;;;;10.02;100.00;100190.84;5006812;28;20033;-65
2022/11/24 10:12:45;;;;;;;4.88;2.05;;;;;;;10.02;100.00;100185.47;5006857;28;20056;-65
2022/11/24 10:15:21;;;;;;;3.95;2.05;;;;;;;9.99;100.00;100191.56;5009400;28;20140;-65
2022/11/24 10:18:23;;;;;;;3.83;2.42;;;;;;;10.19;100.00;100189.56;5006782;28;20426;-65
2022/11/24 10:20:59;;;;;;;4.25;2.15;;;;;;;10.09;100.00;100190.16;5010214;28;20474;-65
2022/11/24 10:23:50;;;;;;;2.63;1.65;;;;;;;10.30;100.00;100204.72;5016350;28;20129;-65
2022/11/24 10:26:37;;;;;;;2.85;1.85;;;;;;;10.02;100.00;100199.72;5005167;28;20032;-65
2022/11/24 10:29:28;;;;;;;6.43;2.50;;;;;;;9.99;100.00;100205.78;5013913;28;20039;-65
2022/11/24 10:31:55;;;;;;;9.25;2.60;;;;;;;9.93;100.00;100201.06;5004752;28;20116;-65
2022/11/24 10:34:30;;;;;;;4.25;2.90;;;;;;;10.18;100.00;100209.56;5014525;28;20036;-64
2022/11/24 10:37:02;;;;;;;6.22;2.10;;;;;;;10.13;100.00;100202.56;5013836;28;20456;-65
2022/11/24 10:39:51;;;;;;;6.93;2.63;;;;;;;10.08;100.00;100213.63;5014485;28;20058;-65
2022/11/24 10:42:18;;;;;;;3.80;2.03;;;;;;;10.23;100.00;100211.94;5009534;28;20033;-65
2022/11/24 10:44:44;;;;;;;7.25;2.80;;;;;;;10.33;100.00;100220.16;5013325;28;20490;-65
2022/11/24 10:47:21;;;;;;;6.03;2.50;;;;;;;10.27;100.00;100215.44;5012101;28;20046;-64
2022/11/24 10:50:20;;;;;;;3.35;1.70;;;;;;;10.35;100.00;100209.81;5009826;28;20054;-65
2022/11/24 10:53:07;;;;;;;4.55;2.03;;;;;;;10.36;100.00;100216.75;5011499;28;20394;-64
2022/11/24 10:55:54;;;;;;;2.95;2.20;;;;;;;10.43;100.00;100210.69;5012121;28;20414;-64
2022/11/24 10:58:25;;;;;;;5.63;2.25;;;;;;;10.51;100.00;100209.66;5012509;28;20494;-64
2022/11/24 11:00:51;;;;;;;9.95;3.55;;;;;;;10.42;100.00;100212.59;5009451;28;20041;-64
2022/11/24 11:03:20;;;;;;;3.78;2.53;;;;;;;10.32;100.00;100209.75;5013337;28;20091;-64
2022/11/24 11:05:53;;;;;;;5.80;2.05;;;;;;;10.48;100.00;100221.13;5013490;28;20482;-64
2022/11/24 11:08:25;;;;;;;6.18;2.78;;;;;;;10.54;100.00;100225.06;5012269;28;20509;-64
2022/11/24 11:11:06;;;;;;;;;;;;;;;10.40;100.00;100228.34;5013270;28;20064;-64
2022/11/24 11:13:31;;;;;;;3.45;1.77;;;;;;;10.52;100.00;100227.34;5022119;28;20043;-64
2022/11/24 11:15:57;;;;;;;3.05;2.00;;;;;;;10.53;100.00;100220.84;5012972;28;20504;-64
2022/11/24 11:18:32;;;;;;;4.75;1.85;;;;;;;10.70;99.26;100231.81;5012776;28;20072;-64
2022/11/24 11:21:03;;;;;;;5.00;2.38;;;;;;;10.74;98.69;100231.88;4997005;28;20486;-64
2022/11/24 11:23:32;;;;;;;3.40;2.22;;;;;;;10.72;98.46;100234.16;5012292;28;20054;-64
2022/11/24 11:26:23;;;;;;;6.68;2.88;;;;;;;10.56;100.00;100228.94;5012026;28;20561;-65
2022/11/24 11:29:07;;;;;;;12.90;3.60;;;;;;;10.64;100.00;100232.50;5012227;28;20042;-64
2022/11/24 11:31:37;;;;;;;6.80;2.55;;;;;;;10.74;100.00;100240.72;5010360;28;20466;-64
2022/11/24 11:34:08;;;;;;;12.57;3.38;;;;;;;10.90;100.00;100235.91;5010662;28;20069;-65
2022/11/24 11:37:01;;;;;;;5.97;1.90;;;;;;;10.99;99.01;100241.03;4993965;28;20454;-65
2022/11/24 11:39:39;;;;;;;5.28;2.78;;;;;;;10.96;99.23;100243.66;5011896;28;20045;-64
2022/11/24 11:42:29;;;;;;;9.00;2.65;;;;;;;11.07;100.00;100239.94;4998959;28;20030;-64